sensor_id;sensor_type;location;lat;lon;timestamp;P1;durP1;ratioP1;P2;durP2;ratioP2
6926;SDS011;3503;50.07605000;8.86719200;2023-04-10T00:04:37;14.77;;;8.00;;
6926;SDS011;3503;50.07605000;8.86719200;2023-04-10T00:19:39;14.23;;;7.90;;
6926;SDS011;3503;50.07605000;8.86719200;2023-04-10T00:34:42;10.57;;;6.60;;
6926;SDS011;3503;50.07605000;8.86719200;2023-04-10T00:49:45;12.03;;;7.03;;
6926;SDS011;3503;50.07605000;8.86719200;2023-04-10T01:04:48;11.57;;;6.37;;
6926;SDS011;3503;50.07605000;8.86719200;2023-04-10T01:20:00;11.70;;;7.07;;
6926;SDS011;3503;50.07605000;8.86719200;2023-04-10T01:35:05;13.63;;;6.80;;
6926;SDS011;3503;50.07605000;8.86719200;2023-04-10T01:50:09;16.70;;;8.00;;
6926;SDS011;3503;50.07605000;8.86719200;2023-04-10T02:05:13;11.63;;;6.27;;
6926;SDS011;3503;50.07605000;8.86719200;2023-04-10T02:20:17;12.80;;;6.73;;
6926;SDS011;3503;50.07605000;8.86719200;2023-04-10T02:35:21;12.77;;;6.90;;
6926;SDS011;3503;50.07605000;8.86719200;2023-04-10T02:50:23;13.50;;;7.20;;
6926;SDS011;3503;50.07605000;8.86719200;2023-04-10T03:05:30;17.70;;;8.57;;
6926;SDS011;3503;50.07605000;8.86719200;2023-04-10T03:20:34;15.87;;;8.10;;
6926;SDS011;3503;50.07605000;8.86719200;2023-04-10T03:35:37;15.47;;;8.37;;
6926;SDS011;3503;50.07605000;8.86719200;2023-04-10T03:50:40;15.97;;;9.00;;
6926;SDS011;3503;50.07605000;8.86719200;2023-04-10T04:05:43;13.50;;;7.77;;
6926;SDS011;3503;50.07605000;8.86719200;2023-04-10T04:20:46;15.30;;;9.07;;
6926;SDS011;3503;50.07605000;8.86719200;2023-04-10T04:35:49;15.50;;;7.60;;
6926;SDS011;3503;50.07605000;8.86719200;2023-04-10T04:50:52;11.73;;;7.33;;
6926;SDS011;3503;50.07605000;8.86719200;2023-04-10T05:05:55;13.83;;;8.30;;
6926;SDS011;3503;50.07605000;8.86719200;2023-04-10T05:20:58;13.47;;;7.93;;
6926;SDS011;3503;50.07605000;8.86719200;2023-04-10T05:36:01;13.50;;;7.70;;
6926;SDS011;3503;50.07605000;8.86719200;2023-04-10T05:51:04;16.90;;;9.00;;
6926;SDS011;3503;50.07605000;8.86719200;2023-04-10T06:06:08;16.40;;;7.87;;
6926;SDS011;3503;50.07605000;8.86719200;2023-04-10T06:21:12;18.43;;;9.33;;
6926;SDS011;3503;50.07605000;8.86719200;2023-04-10T06:36:15;17.30;;;8.50;;
6926;SDS011;3503;50.07605000;8.86719200;2023-04-10T06:51:18;13.67;;;8.20;;
6926;SDS011;3503;50.07605000;8.86719200;2023-04-10T07:06:21;15.93;;;8.73;;
6926;SDS011;3503;50.07605000;8.86719200;2023-04-10T07:21:24;16.97;;;9.37;;
6926;SDS011;3503;50.07605000;8.86719200;2023-04-10T07:36:27;16.30;;;9.23;;
6926;SDS011;3503;50.07605000;8.86719200;2023-04-10T07:51:30;18.60;;;9.90;;
6926;SDS011;3503;50.07605000;8.86719200;2023-04-10T08:06:33;16.00;;;8.70;;
6926;SDS011;3503;50.07605000;8.86719200;2023-04-10T08:21:36;13.60;;;8.57;;
6926;SDS011;3503;50.07605000;8.86719200;2023-04-10T08:36:39;12.63;;;8.60;;
6926;SDS011;3503;50.07605000;8.86719200;2023-04-10T08:51:46;13.20;;;7.63;;
6926;SDS011;3503;50.07605000;8.86719200;2023-04-10T09:06:52;11.33;;;6.30;;
6926;SDS011;3503;50.07605000;8.86719200;2023-04-10T09:21:56;8.83;;;5.73;;
6926;SDS011;3503;50.07605000;8.86719200;2023-04-10T09:36:59;9.43;;;5.90;;
6926;SDS011;3503;50.07605000;8.86719200;2023-04-10T09:52:04;8.93;;;5.30;;
6926;SDS011;3503;50.07605000;8.86719200;2023-04-10T10:07:21;9.03;;;5.87;;
6926;SDS011;3503;50.07605000;8.86719200;2023-04-10T10:22:25;10.70;;;6.70;;
6926;SDS011;3503;50.07605000;8.86719200;2023-04-10T10:37:29;6.70;;;4.77;;
6926;SDS011;3503;50.07605000;8.86719200;2023-04-10T10:52:42;10.07;;;6.60;;
6926;SDS011;3503;50.07605000;8.86719200;2023-04-10T11:23:11;8.20;;;4.87;;
6926;SDS011;3503;50.07605000;8.86719200;2023-04-10T11:38:15;6.20;;;4.10;;
6926;SDS011;3503;50.07605000;8.86719200;2023-04-10T11:53:19;5.70;;;3.90;;
6926;SDS011;3503;50.07605000;8.86719200;2023-04-10T12:08:30;4.47;;;3.30;;
6926;SDS011;3503;50.07605000;8.86719200;2023-04-10T12:23:34;4.67;;;3.00;;
6926;SDS011;3503;50.07605000;8.86719200;2023-04-10T12:38:39;3.60;;;2.40;;
6926;SDS011;3503;50.07605000;8.86719200;2023-04-10T12:53:43;4.50;;;2.20;;
6926;SDS011;3503;50.07605000;8.86719200;2023-04-10T13:08:46;3.47;;;2.40;;
6926;SDS011;3503;50.07605000;8.86719200;2023-04-10T13:23:49;3.20;;;1.90;;
6926;SDS011;3503;50.07605000;8.86719200;2023-04-10T13:38:52;2.80;;;2.00;;
6926;SDS011;3503;50.07605000;8.86719200;2023-04-10T13:53:55;2.50;;;1.87;;
6926;SDS011;3503;50.07605000;8.86719200;2023-04-10T14:08:57;3.30;;;1.93;;
6926;SDS011;3503;50.07605000;8.86719200;2023-04-10T14:24:00;3.70;;;2.17;;
6926;SDS011;3503;50.07605000;8.86719200;2023-04-10T14:39:03;2.37;;;1.50;;
6926;SDS011;3503;50.07605000;8.86719200;2023-04-10T14:54:07;4.37;;;2.47;;
6926;SDS011;3503;50.07605000;8.86719200;2023-04-10T15:09:10;1.90;;;1.00;;
6926;SDS011;3503;50.07605000;8.86719200;2023-04-10T15:24:13;1.70;;;1.13;;
6926;SDS011;3503;50.07605000;8.86719200;2023-04-10T15:39:16;1.93;;;0.90;;
6926;SDS011;3503;50.07605000;8.86719200;2023-04-10T15:54:19;2.13;;;1.20;;
6926;SDS011;3503;50.07605000;8.86719200;2023-04-10T16:09:22;1.87;;;0.97;;
6926;SDS011;3503;50.07605000;8.86719200;2023-04-10T16:24:25;2.63;;;1.53;;
6926;SDS011;3503;50.07605000;8.86719200;2023-04-10T16:39:28;3.20;;;1.20;;
6926;SDS011;3503;50.07605000;8.86719200;2023-04-10T16:54:31;2.43;;;1.30;;
6926;SDS011;3503;50.07605000;8.86719200;2023-04-10T17:09:34;1.80;;;0.90;;
6926;SDS011;3503;50.07605000;8.86719200;2023-04-10T17:24:38;3.67;;;1.50;;
6926;SDS011;3503;50.07605000;8.86719200;2023-04-10T17:39:41;3.20;;;1.00;;
6926;SDS011;3503;50.07605000;8.86719200;2023-04-10T17:54:44;3.53;;;1.57;;
6926;SDS011;3503;50.07605000;8.86719200;2023-04-10T18:09:46;3.50;;;2.40;;
6926;SDS011;3503;50.07605000;8.86719200;2023-04-10T18:24:49;3.47;;;1.97;;
6926;SDS011;3503;50.07605000;8.86719200;2023-04-10T18:39:52;7.13;;;4.40;;
6926;SDS011;3503;50.07605000;8.86719200;2023-04-10T18:54:55;3.37;;;2.10;;
6926;SDS011;3503;50.07605000;8.86719200;2023-04-10T19:09:58;3.37;;;2.10;;
6926;SDS011;3503;50.07605000;8.86719200;2023-04-10T19:25:02;2.60;;;1.60;;
6926;SDS011;3503;50.07605000;8.86719200;2023-04-10T19:40:05;3.47;;;1.70;;
6926;SDS011;3503;50.07605000;8.86719200;2023-04-10T19:55:09;4.40;;;2.13;;
6926;SDS011;3503;50.07605000;8.86719200;2023-04-10T20:10:12;5.40;;;2.23;;
6926;SDS011;3503;50.07605000;8.86719200;2023-04-10T20:25:15;4.83;;;2.13;;
6926;SDS011;3503;50.07605000;8.86719200;2023-04-10T20:40:18;3.67;;;1.80;;
6926;SDS011;3503;50.07605000;8.86719200;2023-04-10T20:55:21;4.03;;;1.93;;
6926;SDS011;3503;50.07605000;8.86719200;2023-04-10T21:10:24;3.87;;;2.00;;
6926;SDS011;3503;50.07605000;8.86719200;2023-04-10T21:25:29;3.70;;;2.03;;
6926;SDS011;3503;50.07605000;8.86719200;2023-04-10T21:40:33;3.70;;;1.53;;
6926;SDS011;3503;50.07605000;8.86719200;2023-04-10T21:55:36;4.50;;;2.47;;
6926;SDS011;3503;50.07605000;8.86719200;2023-04-10T22:10:39;6.33;;;2.30;;
6926;SDS011;3503;50.07605000;8.86719200;2023-04-10T22:25:42;4.07;;;1.50;;
6926;SDS011;3503;50.07605000;8.86719200;2023-04-10T22:40:45;5.00;;;1.43;;
6926;SDS011;3503;50.07605000;8.86719200;2023-04-10T22:55:48;4.70;;;2.10;;
6926;SDS011;3503;50.07605000;8.86719200;2023-04-10T23:10:52;3.40;;;2.30;;
6926;SDS011;3503;50.07605000;8.86719200;2023-04-10T23:25:58;4.87;;;2.40;;
6926;SDS011;3503;50.07605000;8.86719200;2023-04-10T23:41:01;5.00;;;2.27;;
6926;SDS011;3503;50.07605000;8.86719200;2023-04-10T23:56:05;6.07;;;2.77;;
